createdAt,value
2018-10-16T00:00:18.849Z,52.02
2018-10-16T00:02:43.259Z,51.72
2018-10-16T00:05:07.216Z,52.30
2018-10-16T00:07:31.139Z,52.25
2018-10-16T00:09:55.023Z,52.53
2018-10-16T00:12:18.953Z,52.56
2018-10-16T00:14:42.837Z,52.37
2018-10-16T00:17:06.743Z,52.66
2018-10-16T00:19:30.768Z,51.88
2018-10-16T00:21:54.991Z,52.43
2018-10-16T00:24:18.885Z,52.16
2018-10-16T00:26:42.834Z,52.24
2018-10-16T00:29:06.701Z,52.64
2018-10-16T00:31:30.567Z,51.90
2018-10-16T00:33:54.463Z,51.84
2018-10-16T00:36:18.351Z,52.06
2018-10-16T00:38:42.480Z,52.01
2018-10-16T00:41:06.855Z,51.64
2018-10-16T00:43:30.748Z,51.50
2018-10-16T00:45:54.671Z,51.39
2018-10-16T00:48:18.555Z,51.75
2018-10-16T00:50:42.742Z,51.98
2018-10-16T00:53:06.622Z,51.96
2018-10-16T00:55:30.477Z,52.40
2018-10-16T00:57:54.368Z,52.60
2018-10-16T01:00:18.282Z,52.15
2018-10-16T01:02:43.280Z,52.94
2018-10-16T01:05:07.663Z,52.33
2018-10-16T01:07:31.536Z,52.57
2018-10-16T01:09:55.459Z,52.75
2018-10-16T01:12:19.336Z,53.31
2018-10-16T01:14:43.236Z,53.42
2018-10-16T01:17:07.121Z,53.29
2018-10-16T01:19:31.005Z,53.53
2018-10-16T01:21:54.887Z,53.52
2018-10-16T01:24:18.760Z,53.39
2018-10-16T01:26:42.921Z,55.76
2018-10-16T01:29:06.809Z,54.68
2018-10-16T01:31:30.691Z,54.58
2018-10-16T01:33:54.595Z,53.96
2018-10-16T01:36:18.476Z,53.14
2018-10-16T01:38:42.423Z,54.53
2018-10-16T01:41:06.587Z,54.10
2018-10-16T01:43:30.790Z,53.90
2018-10-16T01:45:54.666Z,53.77
2018-10-16T01:48:18.529Z,53.48
2018-10-16T01:50:42.689Z,54.37
2018-10-16T01:53:06.576Z,54.26
2018-10-16T01:55:30.444Z,54.16
2018-10-16T01:57:54.356Z,54.45
2018-10-16T02:00:18.241Z,54.99
2018-10-16T02:02:42.240Z,54.77
2018-10-16T02:05:06.676Z,54.53
2018-10-16T02:07:30.569Z,55.14
2018-10-16T02:09:54.496Z,54.77
2018-10-16T02:12:18.369Z,54.63
2018-10-16T02:14:42.270Z,55.84
2018-10-16T02:17:06.618Z,55.84
2018-10-16T02:19:30.541Z,55.62
2018-10-16T02:21:54.436Z,55.72
2018-10-16T02:24:18.350Z,55.93
2018-10-16T02:26:42.330Z,55.49
2018-10-16T02:29:06.674Z,55.11
2018-10-16T02:31:30.558Z,56.71
2018-10-16T02:33:54.448Z,56.53
2018-10-16T02:36:18.340Z,55.57
2018-10-16T02:38:44.563Z,56.58
2018-10-16T02:41:08.441Z,56.83
2018-10-16T02:43:32.325Z,56.80
2018-10-16T02:45:56.211Z,56.02
2018-10-16T02:48:20.070Z,56.13
2018-10-16T02:50:43.952Z,55.94
2018-10-16T02:53:07.837Z,55.62
2018-10-16T02:55:31.683Z,55.63
2018-10-16T02:57:55.579Z,55.84
2018-10-16T03:00:19.445Z,56.81
2018-10-16T03:02:43.441Z,57.52
2018-10-16T03:05:07.464Z,56.12
2018-10-16T03:07:31.351Z,55.85
2018-10-16T03:09:56.448Z,56.33
2018-10-16T03:12:20.298Z,56.12
2018-10-16T03:14:44.152Z,57.75
2018-10-16T03:17:08.103Z,57.84
2018-10-16T03:19:31.956Z,57.04
2018-10-16T03:21:55.830Z,56.51
2018-10-16T03:24:19.673Z,56.75
2018-10-16T03:26:43.526Z,57.22
2018-10-16T03:29:07.936Z,57.19
2018-10-16T03:31:31.818Z,58.06
2018-10-16T03:33:55.685Z,57.52
2018-10-16T03:36:19.573Z,57.35
2018-10-16T03:38:43.428Z,58.31
2018-10-16T03:41:07.391Z,58.00
2018-10-16T03:43:31.264Z,57.96
2018-10-16T03:45:55.174Z,57.43
2018-10-16T03:48:19.060Z,57.73
2018-10-16T03:50:42.921Z,57.88
2018-10-16T03:53:06.981Z,57.68
2018-10-16T03:55:37.390Z,58.15
2018-10-16T03:58:01.579Z,58.30
2018-10-16T04:00:25.454Z,58.36
2018-10-16T04:02:49.374Z,58.23
2018-10-16T04:05:13.281Z,57.62
2018-10-16T04:07:37.334Z,57.47
2018-10-16T04:10:01.400Z,57.66
2018-10-16T04:12:25.277Z,57.17
2018-10-16T04:14:49.154Z,57.67
2018-10-16T04:17:13.045Z,58.11
2018-10-16T04:19:37.013Z,59.25
2018-10-16T04:22:00.947Z,59.13
2018-10-16T04:24:24.900Z,58.18
2018-10-16T04:26:48.772Z,58.05
2018-10-16T04:29:13.010Z,58.79
2018-10-16T04:31:36.865Z,58.30
2018-10-16T04:34:00.848Z,57.81
2018-10-16T04:36:24.690Z,58.10
2018-10-16T04:38:48.622Z,58.77
2018-10-16T04:41:12.524Z,58.33
2018-10-16T04:43:36.470Z,58.73
2018-10-16T04:46:00.367Z,58.78
2018-10-16T04:48:24.425Z,59.02
2018-10-16T04:50:48.289Z,58.52
2018-10-16T04:53:12.207Z,58.09
2018-10-16T04:55:36.074Z,57.82
2018-10-16T04:57:59.951Z,57.98
2018-10-16T05:00:23.878Z,57.88
2018-10-16T05:02:47.813Z,58.06
2018-10-16T05:05:18.628Z,58.76
2018-10-16T05:07:42.584Z,58.73
2018-10-16T05:10:06.909Z,59.34
2018-10-16T05:12:30.763Z,58.80
2018-10-16T05:14:54.682Z,59.16
2018-10-16T05:17:18.572Z,60.04
2018-10-16T05:19:42.449Z,60.78
2018-10-16T05:22:06.372Z,60.20
2018-10-16T05:24:30.280Z,60.32
2018-10-16T05:29:24.138Z,61.76
2018-10-16T05:31:48.033Z,60.53
2018-10-16T05:34:11.954Z,60.00
2018-10-16T05:36:35.851Z,60.14
2018-10-16T05:38:59.796Z,59.64
2018-10-16T05:41:23.720Z,59.48
2018-10-16T05:43:47.597Z,59.77
2018-10-16T05:46:11.549Z,59.58
2018-10-16T05:48:35.420Z,59.46
2018-10-16T05:51:05.586Z,59.79
2018-10-16T05:53:29.459Z,59.68
2018-10-16T05:56:04.509Z,59.17
2018-10-16T05:58:28.421Z,59.42
2018-10-16T06:00:52.292Z,59.39
2018-10-16T06:03:16.180Z,59.34
2018-10-16T06:05:40.161Z,59.45
2018-10-16T06:08:04.014Z,59.19
2018-10-16T06:10:28.012Z,59.20
2018-10-16T06:12:51.925Z,59.64
2018-10-16T06:15:15.812Z,59.97
2018-10-16T06:17:39.689Z,59.26
2018-10-16T06:20:03.584Z,59.16
2018-10-16T06:22:27.516Z,59.74
2018-10-16T06:24:51.386Z,59.83
2018-10-16T06:27:15.336Z,59.58
2018-10-16T06:29:39.210Z,59.96
2018-10-16T06:32:03.091Z,60.02
2018-10-16T06:34:27.003Z,59.84
2018-10-16T06:36:50.853Z,62.24
2018-10-16T06:39:14.717Z,62.49
2018-10-16T06:41:38.725Z,60.34
2018-10-16T06:44:02.573Z,59.65
2018-10-16T06:46:26.519Z,60.06
2018-10-16T06:48:50.628Z,59.69
2018-10-16T06:51:14.244Z,59.76
2018-10-16T06:53:38.150Z,60.47
2018-10-16T06:56:02.037Z,61.79
2018-10-16T06:58:25.930Z,60.47
2018-10-16T07:00:49.889Z,59.34
2018-10-16T07:03:13.777Z,58.63
2018-10-16T07:05:37.668Z,59.52
2018-10-16T07:08:01.563Z,60.10
2018-10-16T07:10:25.529Z,60.61
2018-10-16T07:12:49.426Z,59.27
2018-10-16T07:15:13.342Z,59.56
2018-10-16T07:17:37.255Z,58.94
2018-10-16T07:20:01.125Z,58.89
2018-10-16T07:22:25.071Z,59.32
2018-10-16T07:24:48.911Z,58.44
2018-10-16T07:27:12.795Z,60.20
2018-10-16T07:29:36.964Z,60.39
2018-10-16T07:32:00.823Z,59.37
2018-10-16T07:34:24.757Z,58.45
2018-10-16T07:36:48.619Z,59.56
2018-10-16T07:39:13.571Z,59.97
2018-10-16T07:41:37.657Z,59.26
2018-10-16T07:44:01.564Z,58.75
2018-10-16T07:46:25.459Z,58.61
2018-10-16T07:48:49.387Z,61.79
2018-10-16T07:51:13.240Z,60.14
2018-10-16T07:53:37.143Z,60.61
2018-10-16T07:56:01.028Z,60.27
2018-10-16T07:58:24.951Z,59.33
2018-10-16T08:00:48.851Z,60.53
2018-10-16T08:03:12.740Z,59.66
2018-10-16T08:05:36.634Z,58.25
2018-10-16T08:08:00.528Z,58.23
2018-10-16T08:10:24.471Z,57.42
2018-10-16T08:12:48.373Z,56.68
2018-10-16T08:15:12.476Z,56.74
2018-10-16T08:17:36.436Z,58.44
2018-10-16T08:20:00.327Z,58.70
2018-10-16T08:22:24.159Z,58.06
2018-10-16T08:24:48.102Z,57.44
2018-10-16T08:27:11.994Z,58.69
2018-10-16T08:29:35.850Z,57.74
2018-10-16T08:31:59.768Z,58.74
2018-10-16T08:34:23.692Z,59.26
2018-10-16T08:36:47.685Z,58.36
2018-10-16T08:39:17.363Z,58.24
2018-10-16T08:41:51.453Z,57.28
2018-10-16T08:44:44.472Z,59.13
2018-10-16T08:47:19.784Z,57.45
2018-10-16T08:49:54.898Z,58.17
2018-10-16T08:52:18.775Z,59.21
2018-10-16T08:54:42.664Z,57.42
2018-10-16T08:57:06.558Z,56.48
2018-10-16T08:59:30.481Z,56.38
2018-10-16T09:01:54.345Z,57.01
2018-10-16T09:04:18.275Z,57.62
2018-10-16T09:06:42.183Z,57.33
2018-10-16T09:09:09.181Z,57.33
2018-10-16T09:11:33.041Z,57.01
2018-10-16T09:13:57.167Z,56.04
2018-10-16T09:16:21.472Z,56.81
2018-10-16T09:18:45.325Z,57.15
2018-10-16T09:21:09.247Z,56.13
2018-10-16T09:23:33.119Z,57.02
2018-10-16T09:25:57.040Z,55.44
2018-10-16T09:28:20.919Z,55.04
2018-10-16T09:30:44.844Z,54.44
2018-10-16T09:33:08.789Z,53.83
2018-10-16T09:35:32.649Z,53.29
2018-10-16T09:37:56.637Z,53.11
2018-10-16T09:40:21.074Z,52.76
2018-10-16T09:42:44.955Z,53.33
2018-10-16T09:45:09.949Z,52.81
2018-10-16T09:47:33.824Z,52.95
2018-10-16T09:49:57.739Z,52.56
2018-10-16T09:52:21.605Z,53.07
2018-10-16T09:54:45.482Z,52.18
2018-10-16T09:57:09.395Z,52.88
2018-10-16T09:59:33.301Z,50.93
2018-10-16T10:01:57.266Z,50.47
2018-10-16T10:04:21.192Z,51.15
2018-10-16T10:06:45.108Z,50.71
2018-10-16T10:09:10.853Z,50.08
2018-10-16T10:11:34.734Z,49.91
2018-10-16T10:13:58.650Z,49.47
2018-10-16T10:16:22.545Z,49.67
2018-10-16T10:18:46.572Z,48.33
2018-10-16T10:21:10.508Z,47.78
2018-10-16T10:23:34.388Z,46.82
2018-10-16T10:25:58.292Z,46.87
2018-10-16T10:28:22.224Z,46.34
2018-10-16T10:30:46.201Z,45.95
2018-10-16T10:33:10.058Z,45.80
2018-10-16T10:35:33.962Z,46.16
2018-10-16T10:38:31.482Z,47.18
2018-10-16T10:40:56.931Z,46.40
2018-10-16T10:43:34.353Z,43.65
2018-10-16T10:46:11.323Z,43.65
2018-10-16T10:48:31.278Z,43.97
2018-10-16T10:50:56.925Z,43.01
2018-10-16T10:53:22.181Z,42.82
2018-10-16T10:55:47.632Z,41.93
2018-10-16T10:58:13.069Z,41.85
2018-10-16T11:00:38.517Z,41.87
2018-10-16T11:03:15.904Z,41.66
2018-10-16T11:05:41.256Z,41.66
2018-10-16T11:08:20.368Z,42.18
2018-10-16T11:10:52.894Z,40.80
2018-10-16T11:13:09.869Z,41.55
2018-10-16T11:15:35.295Z,40.64
2018-10-16T11:18:00.718Z,40.13
2018-10-16T11:20:37.959Z,36.61
2018-10-16T11:23:17.816Z,33.38
2018-10-16T11:25:34.756Z,33.60
2018-10-16T11:28:00.196Z,31.66
2018-10-16T11:30:25.696Z,33.92
2018-10-16T11:32:51.169Z,34.03
2018-10-16T11:35:16.610Z,29.69
2018-10-16T11:37:42.141Z,27.94
2018-10-16T11:40:07.729Z,27.80
2018-10-16T11:42:33.178Z,27.07
2018-10-16T11:47:35.700Z,27.11
2018-10-16T11:50:01.219Z,30.20
2018-10-16T11:52:38.536Z,27.24
2018-10-16T11:55:03.987Z,27.37
2018-10-16T11:57:29.421Z,25.32
2018-10-16T11:59:54.863Z,26.05
2018-10-16T12:02:22.330Z,24.46
2018-10-16T12:04:47.547Z,24.62
2018-10-16T12:07:32.031Z,25.24
2018-10-16T12:09:57.498Z,23.48
2018-10-16T12:12:36.884Z,24.46
2018-10-16T12:14:54.671Z,26.73
2018-10-16T12:17:39.137Z,24.95
2018-10-16T12:20:23.271Z,24.46
2018-10-16T12:23:07.700Z,25.07
2018-10-16T12:25:44.964Z,22.19
2018-10-16T12:28:04.512Z,22.59
2018-10-16T12:30:29.966Z,22.70
2018-10-16T12:32:55.467Z,23.28
2018-10-16T12:35:20.888Z,22.28
2018-10-16T12:37:46.430Z,24.52
2018-10-16T12:40:11.988Z,23.85
2018-10-16T12:42:37.365Z,25.73
2018-10-16T12:45:03.038Z,23.41
2018-10-16T12:47:28.455Z,21.33
2018-10-16T12:49:53.910Z,20.92
2018-10-16T12:52:19.366Z,20.94
2018-10-16T12:54:44.794Z,21.89
2018-10-16T12:57:10.407Z,23.56
2018-10-16T12:59:35.825Z,22.88
2018-10-16T13:02:01.339Z,21.75
2018-10-16T13:04:26.777Z,23.41
2018-10-16T13:06:52.211Z,21.90
2018-10-16T13:09:17.731Z,20.89
2018-10-16T13:11:43.835Z,21.64
2018-10-16T13:14:09.330Z,21.52
2018-10-16T13:16:34.786Z,21.40
2018-10-16T13:19:00.241Z,20.76
2018-10-16T13:24:03.359Z,23.45
2018-10-16T13:26:28.845Z,23.41
2018-10-16T13:28:54.318Z,25.29
2018-10-16T13:31:19.748Z,22.87
2018-10-16T13:33:58.864Z,23.06
2018-10-16T13:36:16.741Z,21.91
2018-10-16T13:38:42.232Z,24.22
2018-10-16T13:41:19.208Z,25.42
2018-10-16T13:43:39.000Z,24.76
2018-10-16T13:46:04.493Z,22.05
2018-10-16T13:48:29.940Z,22.93
2018-10-16T13:50:55.421Z,22.53
2018-10-16T13:53:20.865Z,23.77
2018-10-16T13:55:46.308Z,22.31
2018-10-16T13:58:11.923Z,23.63
2018-10-16T14:00:37.194Z,26.59
2018-10-16T14:03:02.710Z,24.44
2018-10-16T14:05:28.177Z,23.65
2018-10-16T14:07:53.640Z,25.26
2018-10-16T14:10:19.421Z,24.72
2018-10-16T14:12:45.971Z,22.04
2018-10-16T14:15:12.316Z,21.58
2018-10-16T14:17:37.893Z,21.56
2018-10-16T14:20:03.346Z,21.74
2018-10-16T14:22:28.760Z,21.71
2018-10-16T14:24:54.215Z,23.36
2018-10-16T14:27:19.677Z,23.38
2018-10-16T14:29:45.148Z,22.60
2018-10-16T14:32:10.764Z,23.72
2018-10-16T14:34:36.266Z,21.85
2018-10-16T14:37:01.584Z,22.85
2018-10-16T14:39:27.018Z,23.21
2018-10-16T14:41:52.489Z,23.06
2018-10-16T14:44:17.939Z,22.47
2018-10-16T14:46:43.481Z,24.79
2018-10-16T14:49:08.961Z,25.72
2018-10-16T14:51:35.207Z,27.56
2018-10-16T14:56:38.099Z,30.32
2018-10-16T14:59:03.548Z,31.26
2018-10-16T15:01:29.013Z,32.67
2018-10-16T15:03:54.469Z,34.35
2018-10-16T15:06:20.014Z,34.66
2018-10-16T15:08:45.497Z,34.64
2018-10-16T15:11:22.731Z,34.30
2018-10-16T15:13:42.726Z,34.31
2018-10-16T15:16:08.335Z,35.02
2018-10-16T15:18:33.755Z,35.00
2018-10-16T15:20:59.221Z,35.49
2018-10-16T15:23:24.675Z,36.29
2018-10-16T15:25:50.082Z,36.54
2018-10-16T15:28:15.559Z,37.51
2018-10-16T15:30:41.016Z,36.63
2018-10-16T15:33:06.500Z,37.72
2018-10-16T15:35:31.955Z,37.84
2018-10-16T15:37:57.473Z,37.62
2018-10-16T15:40:22.885Z,37.63
2018-10-16T15:42:48.389Z,38.09
2018-10-16T15:45:14.207Z,38.13
2018-10-16T15:47:40.225Z,38.47
2018-10-16T15:50:06.100Z,38.57
2018-10-16T15:52:31.525Z,39.21
2018-10-16T15:55:11.377Z,39.54
2018-10-16T15:57:42.816Z,39.98
2018-10-16T16:00:01.016Z,40.22
2018-10-16T16:02:29.489Z,40.00
2018-10-16T16:04:54.966Z,40.41
2018-10-16T16:07:34.876Z,40.62
2018-10-16T16:09:51.609Z,41.06
2018-10-16T16:12:17.096Z,40.80
2018-10-16T16:14:42.546Z,41.21
2018-10-16T16:17:08.027Z,41.59
2018-10-16T16:19:33.528Z,41.82
2018-10-16T16:22:10.665Z,42.68
2018-10-16T16:24:30.012Z,42.85
2018-10-16T16:26:55.460Z,43.02
2018-10-16T16:29:20.971Z,43.07
2018-10-16T16:31:46.450Z,43.66
2018-10-16T16:34:12.044Z,43.81
2018-10-16T16:36:37.452Z,43.70
2018-10-16T16:39:02.950Z,43.86
2018-10-16T16:41:39.824Z,44.21
2018-10-16T16:46:37.070Z,44.77
2018-10-16T16:49:02.591Z,44.54
2018-10-16T16:51:28.031Z,44.43
2018-10-16T16:53:53.484Z,44.94
2018-10-16T16:56:30.110Z,44.91
2018-10-16T16:58:55.612Z,44.91
2018-10-16T17:01:21.021Z,44.83
2018-10-16T17:03:46.517Z,44.83
2018-10-16T17:06:12.010Z,45.40
2018-10-16T17:08:37.493Z,46.06
2018-10-16T17:11:03.022Z,46.00
2018-10-16T17:13:40.586Z,45.41
2018-10-16T17:16:06.085Z,45.41
2018-10-16T17:18:31.559Z,46.46
2018-10-16T17:20:57.057Z,46.76
2018-10-16T17:23:34.324Z,46.89
2018-10-16T17:25:53.850Z,47.11
2018-10-16T17:28:38.154Z,47.04
2018-10-16T17:31:03.653Z,47.57
2018-10-16T17:33:29.149Z,47.17
2018-10-16T17:35:54.686Z,47.77
2018-10-16T17:38:32.477Z,51.35
2018-10-16T17:40:58.041Z,51.35
2018-10-16T17:43:23.513Z,48.97
2018-10-16T17:45:48.984Z,48.75
2018-10-16T17:48:14.538Z,48.78
2018-10-16T17:50:39.968Z,49.04
2018-10-16T17:53:05.464Z,48.96
2018-10-16T17:58:08.557Z,48.76
2018-10-16T18:00:34.026Z,48.74
2018-10-16T18:02:59.527Z,49.63
2018-10-16T18:05:24.998Z,50.47
2018-10-16T18:07:50.474Z,50.07
2018-10-16T18:12:52.617Z,50.10
2018-10-16T18:15:18.102Z,50.08
2018-10-16T18:17:44.306Z,50.44
2018-10-16T18:20:11.004Z,50.37
2018-10-16T18:22:36.486Z,50.65
2018-10-16T18:30:13.864Z,50.90
2018-10-16T18:32:39.440Z,50.79
2018-10-16T18:35:05.003Z,51.40
2018-10-16T18:37:30.428Z,51.44
2018-10-16T18:39:56.004Z,51.51
2018-10-16T18:42:21.408Z,51.35
2018-10-16T18:44:46.875Z,51.44
2018-10-16T18:47:12.374Z,51.67
2018-10-16T18:49:37.870Z,52.12
2018-10-16T18:52:03.363Z,51.91
2018-10-16T18:54:28.983Z,51.63
2018-10-16T18:56:54.436Z,52.14
2018-10-16T18:59:19.855Z,51.91
2018-10-16T19:01:45.303Z,52.34
2018-10-16T19:04:11.308Z,52.39
2018-10-16T19:06:36.808Z,52.69
2018-10-16T19:11:39.691Z,52.86
2018-10-16T19:14:05.172Z,52.57
2018-10-16T19:16:30.643Z,52.45
2018-10-16T19:18:56.175Z,52.27
2018-10-16T19:21:21.640Z,52.03
2018-10-16T19:23:47.129Z,52.22
2018-10-16T19:26:12.577Z,52.65
2018-10-16T19:28:38.078Z,52.61
2018-10-16T19:31:03.502Z,52.55
2018-10-16T19:33:28.977Z,53.06
2018-10-16T19:35:54.489Z,52.98
2018-10-16T19:43:37.982Z,54.01
2018-10-16T19:46:03.465Z,53.09
2018-10-16T19:48:28.942Z,53.17
2018-10-16T19:53:30.847Z,53.46
2018-10-16T19:56:10.037Z,54.34
2018-10-16T20:01:03.868Z,53.93
2018-10-16T20:03:29.378Z,53.28
2018-10-16T20:05:54.866Z,53.79
2018-10-16T20:08:20.308Z,54.04
2018-10-16T20:10:45.802Z,54.39
2018-10-16T20:13:11.266Z,54.26
2018-10-16T20:15:36.714Z,54.93
2018-10-16T20:18:02.196Z,54.48
2018-10-16T20:20:27.634Z,54.93
2018-10-16T20:22:53.058Z,55.00
2018-10-16T20:25:18.655Z,54.91
2018-10-16T20:27:44.002Z,54.67
2018-10-16T20:30:10.646Z,54.23
2018-10-16T20:35:13.858Z,54.91
2018-10-16T20:37:55.835Z,54.92
2018-10-16T20:42:47.896Z,54.88
2018-10-16T20:45:13.374Z,54.94
2018-10-16T20:47:50.719Z,54.87
2018-10-16T20:50:16.162Z,55.32
2018-10-16T20:52:41.638Z,55.51
2018-10-16T20:55:18.988Z,55.17
2018-10-16T20:57:38.649Z,55.50
2018-10-16T21:00:04.409Z,55.51
2018-10-16T21:02:29.881Z,55.25
2018-10-16T21:04:55.518Z,55.53
2018-10-16T21:07:20.985Z,55.67
2018-10-16T21:09:58.107Z,55.85
2018-10-16T21:12:17.595Z,56.31
2018-10-16T21:14:43.057Z,56.36
2018-10-16T21:17:08.526Z,56.00
2018-10-16T21:19:34.039Z,56.20
2018-10-16T21:21:59.420Z,55.98
2018-10-16T21:24:36.693Z,56.52
2018-10-16T21:27:15.478Z,56.33
2018-10-16T21:29:40.997Z,56.64
2018-10-16T21:32:07.253Z,56.85
2018-10-16T21:34:32.710Z,56.74
2018-10-16T21:36:58.232Z,59.92
2018-10-16T21:39:23.618Z,59.12
2018-10-16T21:41:49.054Z,57.84
2018-10-16T21:46:52.464Z,57.88
2018-10-16T21:49:17.915Z,57.84
2018-10-16T21:51:43.622Z,57.70
2018-10-16T21:54:09.123Z,57.87
2018-10-16T21:56:34.555Z,58.22
2018-10-16T21:59:00.061Z,60.86
2018-10-16T22:01:44.172Z,60.71
2018-10-16T22:04:09.631Z,59.41
2018-10-16T22:06:35.163Z,57.96
2018-10-16T22:09:00.592Z,57.86
2018-10-16T22:11:26.254Z,58.15
2018-10-16T22:14:03.280Z,58.50
2018-10-16T22:16:23.389Z,58.30
2018-10-16T22:18:48.990Z,57.80
2018-10-16T22:21:14.457Z,58.01
2018-10-16T22:23:39.942Z,58.39
2018-10-16T22:26:05.379Z,58.70
2018-10-16T22:31:08.411Z,58.25
2018-10-16T22:33:33.787Z,58.22
2018-10-16T22:36:11.045Z,58.09
2018-10-16T22:38:41.936Z,59.06
2018-10-16T22:41:01.973Z,59.67
2018-10-16T22:43:27.455Z,60.04
2018-10-16T22:45:52.917Z,59.44
2018-10-16T22:48:18.367Z,59.53
2018-10-16T22:51:02.789Z,58.73
2018-10-16T22:53:42.858Z,59.83
2018-10-16T22:58:52.098Z,59.43
2018-10-16T23:01:09.027Z,59.44
2018-10-16T23:03:34.427Z,59.39
2018-10-16T23:05:59.863Z,59.63
2018-10-16T23:08:25.291Z,59.65
2018-10-16T23:10:50.808Z,59.77
2018-10-16T23:13:16.239Z,59.75
2018-10-16T23:18:19.227Z,60.65
2018-10-16T23:23:22.236Z,60.05
2018-10-16T23:28:24.068Z,59.54
2018-10-16T23:30:49.503Z,59.73
2018-10-16T23:33:14.912Z,60.20
2018-10-16T23:35:40.354Z,60.46
2018-10-16T23:38:06.082Z,60.24
2018-10-16T23:40:43.327Z,59.84
2018-10-16T23:43:03.479Z,60.16
2018-10-16T23:45:28.855Z,59.92
2018-10-16T23:47:54.328Z,61.80
2018-10-16T23:50:19.771Z,62.34
2018-10-16T23:55:22.074Z,61.16
2018-10-16T23:57:47.642Z,60.92
